sensor_id;sensor_type;location;lat;lon;timestamp;P1;durP1;ratioP1;P2;durP2;ratioP2
83688;SDS011;74527;43.224;0.108;2024-01-30T00:01:55;54.08;;;28.40;;
83688;SDS011;74527;43.224;0.108;2024-01-30T00:04:21;55.90;;;28.10;;
83688;SDS011;74527;43.224;0.108;2024-01-30T00:06:47;55.90;;;28.13;;
83688;SDS011;74527;43.224;0.108;2024-01-30T00:09:13;61.00;;;30.92;;
83688;SDS011;74527;43.224;0.108;2024-01-30T00:11:40;78.50;;;33.83;;
83688;SDS011;74527;43.224;0.108;2024-01-30T00:14:06;92.97;;;38.53;;
83688;SDS011;74527;43.224;0.108;2024-01-30T00:16:32;117.00;;;44.40;;
83688;SDS011;74527;43.224;0.108;2024-01-30T00:18:59;139.77;;;55.25;;
83688;SDS011;74527;43.224;0.108;2024-01-30T00:21:27;196.75;;;71.85;;
83688;SDS011;74527;43.224;0.108;2024-01-30T00:23:53;244.77;;;86.70;;
83688;SDS011;74527;43.224;0.108;2024-01-30T00:26:19;303.88;;;115.50;;
83688;SDS011;74527;43.224;0.108;2024-01-30T00:28:45;204.45;;;80.70;;
83688;SDS011;74527;43.224;0.108;2024-01-30T00:31:11;178.73;;;69.53;;
83688;SDS011;74527;43.224;0.108;2024-01-30T00:33:38;76.10;;;35.72;;
83688;SDS011;74527;43.224;0.108;2024-01-30T00:36:05;65.18;;;32.58;;
83688;SDS011;74527;43.224;0.108;2024-01-30T00:38:31;52.38;;;27.63;;
83688;SDS011;74527;43.224;0.108;2024-01-30T00:40:58;45.65;;;24.67;;
83688;SDS011;74527;43.224;0.108;2024-01-30T00:43:24;48.30;;;25.48;;
83688;SDS011;74527;43.224;0.108;2024-01-30T00:45:50;45.35;;;26.35;;
83688;SDS011;74527;43.224;0.108;2024-01-30T00:48:19;49.47;;;27.00;;
83688;SDS011;74527;43.224;0.108;2024-01-30T00:50:45;65.22;;;28.38;;
83688;SDS011;74527;43.224;0.108;2024-01-30T00:53:11;50.08;;;27.25;;
83688;SDS011;74527;43.224;0.108;2024-01-30T00:55:38;51.40;;;26.92;;
83688;SDS011;74527;43.224;0.108;2024-01-30T00:58:04;51.33;;;27.00;;
83688;SDS011;74527;43.224;0.108;2024-01-30T01:00:30;51.28;;;25.48;;
83688;SDS011;74527;43.224;0.108;2024-01-30T01:02:57;46.67;;;25.88;;
83688;SDS011;74527;43.224;0.108;2024-01-30T01:05:23;57.42;;;25.38;;
83688;SDS011;74527;43.224;0.108;2024-01-30T01:07:49;55.85;;;28.27;;
83688;SDS011;74527;43.224;0.108;2024-01-30T01:10:18;65.40;;;31.58;;
83688;SDS011;74527;43.224;0.108;2024-01-30T01:12:44;125.70;;;43.00;;
83688;SDS011;74527;43.224;0.108;2024-01-30T01:15:11;108.53;;;41.40;;
83688;SDS011;74527;43.224;0.108;2024-01-30T01:17:37;92.75;;;38.03;;
83688;SDS011;74527;43.224;0.108;2024-01-30T01:20:04;92.05;;;40.50;;
83688;SDS011;74527;43.224;0.108;2024-01-30T01:22:31;124.18;;;50.50;;
83688;SDS011;74527;43.224;0.108;2024-01-30T01:24:58;136.95;;;50.80;;
83688;SDS011;74527;43.224;0.108;2024-01-30T01:27:24;108.90;;;43.83;;
83688;SDS011;74527;43.224;0.108;2024-01-30T01:29:50;126.65;;;44.13;;
83688;SDS011;74527;43.224;0.108;2024-01-30T01:32:16;101.55;;;41.45;;
83688;SDS011;74527;43.224;0.108;2024-01-30T01:34:42;90.80;;;38.25;;
83688;SDS011;74527;43.224;0.108;2024-01-30T01:37:08;98.82;;;36.97;;
83688;SDS011;74527;43.224;0.108;2024-01-30T01:39:34;82.07;;;35.17;;
83688;SDS011;74527;43.224;0.108;2024-01-30T01:42:00;55.28;;;28.20;;
83688;SDS011;74527;43.224;0.108;2024-01-30T01:44:26;63.10;;;30.02;;
83688;SDS011;74527;43.224;0.108;2024-01-30T01:46:53;54.03;;;25.00;;
83688;SDS011;74527;43.224;0.108;2024-01-30T01:49:19;54.80;;;25.58;;
83688;SDS011;74527;43.224;0.108;2024-01-30T01:51:45;55.28;;;24.92;;
83688;SDS011;74527;43.224;0.108;2024-01-30T01:54:13;61.50;;;28.33;;
83688;SDS011;74527;43.224;0.108;2024-01-30T01:56:39;58.78;;;27.92;;
83688;SDS011;74527;43.224;0.108;2024-01-30T01:59:07;56.88;;;27.10;;
83688;SDS011;74527;43.224;0.108;2024-01-30T02:01:34;57.00;;;25.90;;
83688;SDS011;74527;43.224;0.108;2024-01-30T02:04:00;58.10;;;26.95;;
83688;SDS011;74527;43.224;0.108;2024-01-30T02:06:26;49.38;;;23.17;;
83688;SDS011;74527;43.224;0.108;2024-01-30T02:08:53;39.75;;;21.30;;
83688;SDS011;74527;43.224;0.108;2024-01-30T02:11:22;41.28;;;20.80;;
83688;SDS011;74527;43.224;0.108;2024-01-30T02:13:49;32.85;;;18.50;;
83688;SDS011;74527;43.224;0.108;2024-01-30T02:16:15;39.47;;;19.80;;
83688;SDS011;74527;43.224;0.108;2024-01-30T02:18:43;34.10;;;18.27;;
83688;SDS011;74527;43.224;0.108;2024-01-30T02:21:12;35.53;;;19.63;;
83688;SDS011;74527;43.224;0.108;2024-01-30T02:23:39;32.38;;;16.98;;
83688;SDS011;74527;43.224;0.108;2024-01-30T02:26:05;28.63;;;14.23;;
83688;SDS011;74527;43.224;0.108;2024-01-30T02:28:31;30.60;;;15.40;;
83688;SDS011;74527;43.224;0.108;2024-01-30T02:30:57;27.08;;;15.40;;
83688;SDS011;74527;43.224;0.108;2024-01-30T02:33:23;29.30;;;15.95;;
83688;SDS011;74527;43.224;0.108;2024-01-30T02:35:49;29.10;;;15.57;;
83688;SDS011;74527;43.224;0.108;2024-01-30T02:38:15;28.80;;;15.18;;
83688;SDS011;74527;43.224;0.108;2024-01-30T02:40:41;33.35;;;15.38;;
83688;SDS011;74527;43.224;0.108;2024-01-30T02:43:08;24.52;;;13.38;;
83688;SDS011;74527;43.224;0.108;2024-01-30T02:45:34;31.08;;;15.48;;
83688;SDS011;74527;43.224;0.108;2024-01-30T02:48:00;43.08;;;20.40;;
83688;SDS011;74527;43.224;0.108;2024-01-30T02:50:26;61.15;;;24.48;;
83688;SDS011;74527;43.224;0.108;2024-01-30T02:52:52;84.90;;;30.40;;
83688;SDS011;74527;43.224;0.108;2024-01-30T02:55:18;70.15;;;26.83;;
83688;SDS011;74527;43.224;0.108;2024-01-30T02:57:44;58.22;;;22.92;;
83688;SDS011;74527;43.224;0.108;2024-01-30T03:00:10;50.35;;;18.95;;
83688;SDS011;74527;43.224;0.108;2024-01-30T03:02:37;46.25;;;19.13;;
83688;SDS011;74527;43.224;0.108;2024-01-30T03:05:03;59.13;;;22.05;;
83688;SDS011;74527;43.224;0.108;2024-01-30T03:07:29;52.85;;;21.27;;
83688;SDS011;74527;43.224;0.108;2024-01-30T03:09:55;81.60;;;31.20;;
83688;SDS011;74527;43.224;0.108;2024-01-30T03:12:22;96.90;;;36.75;;
83688;SDS011;74527;43.224;0.108;2024-01-30T03:14:48;61.78;;;24.88;;
83688;SDS011;74527;43.224;0.108;2024-01-30T03:17:17;75.28;;;27.48;;
83688;SDS011;74527;43.224;0.108;2024-01-30T03:19:43;29.20;;;15.80;;
83688;SDS011;74527;43.224;0.108;2024-01-30T03:22:09;55.92;;;21.80;;
83688;SDS011;74527;43.224;0.108;2024-01-30T03:24:35;42.30;;;20.30;;
83688;SDS011;74527;43.224;0.108;2024-01-30T03:27:01;45.05;;;19.58;;
83688;SDS011;74527;43.224;0.108;2024-01-30T03:29:28;30.42;;;14.90;;
83688;SDS011;74527;43.224;0.108;2024-01-30T03:31:54;37.30;;;15.25;;
83688;SDS011;74527;43.224;0.108;2024-01-30T03:34:20;35.03;;;15.23;;
83688;SDS011;74527;43.224;0.108;2024-01-30T03:36:46;32.25;;;16.63;;
83688;SDS011;74527;43.224;0.108;2024-01-30T03:39:12;28.90;;;15.60;;
83688;SDS011;74527;43.224;0.108;2024-01-30T03:41:38;23.13;;;13.70;;
83688;SDS011;74527;43.224;0.108;2024-01-30T03:44:04;31.08;;;15.32;;
83688;SDS011;74527;43.224;0.108;2024-01-30T03:46:30;32.58;;;14.85;;
83688;SDS011;74527;43.224;0.108;2024-01-30T03:48:56;27.10;;;14.40;;
83688;SDS011;74527;43.224;0.108;2024-01-30T03:51:22;19.85;;;12.07;;
83688;SDS011;74527;43.224;0.108;2024-01-30T03:53:48;21.33;;;11.50;;
83688;SDS011;74527;43.224;0.108;2024-01-30T03:56:14;21.95;;;14.73;;
83688;SDS011;74527;43.224;0.108;2024-01-30T03:58:40;28.25;;;16.50;;
83688;SDS011;74527;43.224;0.108;2024-01-30T04:01:06;29.23;;;17.63;;
83688;SDS011;74527;43.224;0.108;2024-01-30T04:03:32;21.92;;;14.18;;
83688;SDS011;74527;43.224;0.108;2024-01-30T04:05:58;24.00;;;12.68;;
83688;SDS011;74527;43.224;0.108;2024-01-30T04:08:24;23.60;;;10.63;;
83688;SDS011;74527;43.224;0.108;2024-01-30T04:10:50;19.70;;;10.82;;
83688;SDS011;74527;43.224;0.108;2024-01-30T04:13:16;16.50;;;8.40;;
83688;SDS011;74527;43.224;0.108;2024-01-30T04:15:42;13.07;;;7.78;;
83688;SDS011;74527;43.224;0.108;2024-01-30T04:18:08;17.02;;;7.00;;
83688;SDS011;74527;43.224;0.108;2024-01-30T04:20:34;14.18;;;6.65;;
83688;SDS011;74527;43.224;0.108;2024-01-30T04:23:00;12.30;;;6.10;;
83688;SDS011;74527;43.224;0.108;2024-01-30T04:25:26;15.77;;;6.20;;
83688;SDS011;74527;43.224;0.108;2024-01-30T04:27:52;13.48;;;6.40;;
83688;SDS011;74527;43.224;0.108;2024-01-30T04:30:18;10.32;;;5.47;;
83688;SDS011;74527;43.224;0.108;2024-01-30T04:32:44;11.57;;;6.28;;
83688;SDS011;74527;43.224;0.108;2024-01-30T04:35:11;9.65;;;5.75;;
83688;SDS011;74527;43.224;0.108;2024-01-30T04:37:37;8.23;;;5.25;;
83688;SDS011;74527;43.224;0.108;2024-01-30T04:40:03;9.52;;;5.53;;
83688;SDS011;74527;43.224;0.108;2024-01-30T04:42:30;12.18;;;5.80;;
83688;SDS011;74527;43.224;0.108;2024-01-30T04:44:56;11.05;;;6.40;;
83688;SDS011;74527;43.224;0.108;2024-01-30T04:47:22;11.23;;;6.15;;
83688;SDS011;74527;43.224;0.108;2024-01-30T04:49:48;12.90;;;6.05;;
83688;SDS011;74527;43.224;0.108;2024-01-30T04:52:15;19.35;;;7.45;;
83688;SDS011;74527;43.224;0.108;2024-01-30T04:54:41;20.42;;;6.60;;
83688;SDS011;74527;43.224;0.108;2024-01-30T04:57:07;12.88;;;5.30;;
83688;SDS011;74527;43.224;0.108;2024-01-30T04:59:36;11.98;;;5.40;;
83688;SDS011;74527;43.224;0.108;2024-01-30T05:02:02;12.95;;;5.32;;
83688;SDS011;74527;43.224;0.108;2024-01-30T05:04:29;14.65;;;5.38;;
83688;SDS011;74527;43.224;0.108;2024-01-30T05:06:55;8.98;;;5.55;;
83688;SDS011;74527;43.224;0.108;2024-01-30T05:09:21;9.10;;;4.82;;
83688;SDS011;74527;43.224;0.108;2024-01-30T05:11:47;7.90;;;5.13;;
83688;SDS011;74527;43.224;0.108;2024-01-30T05:14:13;13.70;;;4.90;;
83688;SDS011;74527;43.224;0.108;2024-01-30T05:16:40;11.10;;;5.18;;
83688;SDS011;74527;43.224;0.108;2024-01-30T05:19:08;17.53;;;6.53;;
83688;SDS011;74527;43.224;0.108;2024-01-30T05:21:34;12.98;;;7.00;;
83688;SDS011;74527;43.224;0.108;2024-01-30T05:24:00;13.73;;;7.18;;
83688;SDS011;74527;43.224;0.108;2024-01-30T05:26:26;13.93;;;7.47;;
83688;SDS011;74527;43.224;0.108;2024-01-30T05:28:52;11.68;;;6.97;;
83688;SDS011;74527;43.224;0.108;2024-01-30T05:31:18;9.35;;;5.97;;
83688;SDS011;74527;43.224;0.108;2024-01-30T05:33:44;12.05;;;6.80;;
83688;SDS011;74527;43.224;0.108;2024-01-30T05:36:13;14.07;;;7.38;;
83688;SDS011;74527;43.224;0.108;2024-01-30T05:38:41;12.90;;;5.38;;
83688;SDS011;74527;43.224;0.108;2024-01-30T05:41:07;9.63;;;4.60;;
83688;SDS011;74527;43.224;0.108;2024-01-30T05:43:34;8.10;;;4.28;;
83688;SDS011;74527;43.224;0.108;2024-01-30T05:46:00;11.15;;;4.72;;
83688;SDS011;74527;43.224;0.108;2024-01-30T05:48:26;8.13;;;4.68;;
83688;SDS011;74527;43.224;0.108;2024-01-30T05:50:52;10.18;;;6.15;;
83688;SDS011;74527;43.224;0.108;2024-01-30T05:53:18;16.38;;;8.20;;
83688;SDS011;74527;43.224;0.108;2024-01-30T05:55:44;14.18;;;8.35;;
83688;SDS011;74527;43.224;0.108;2024-01-30T05:58:11;16.55;;;7.15;;
83688;SDS011;74527;43.224;0.108;2024-01-30T06:00:37;12.65;;;8.02;;
83688;SDS011;74527;43.224;0.108;2024-01-30T06:03:03;20.65;;;9.05;;
83688;SDS011;74527;43.224;0.108;2024-01-30T06:05:29;17.92;;;10.85;;
83688;SDS011;74527;43.224;0.108;2024-01-30T06:07:55;22.75;;;11.63;;
83688;SDS011;74527;43.224;0.108;2024-01-30T06:10:21;18.17;;;11.55;;
83688;SDS011;74527;43.224;0.108;2024-01-30T06:12:47;16.23;;;9.95;;
83688;SDS011;74527;43.224;0.108;2024-01-30T06:15:13;21.15;;;10.10;;
83688;SDS011;74527;43.224;0.108;2024-01-30T06:17:39;17.92;;;10.30;;
83688;SDS011;74527;43.224;0.108;2024-01-30T06:20:05;19.38;;;9.93;;
83688;SDS011;74527;43.224;0.108;2024-01-30T06:22:32;18.27;;;11.73;;
83688;SDS011;74527;43.224;0.108;2024-01-30T06:24:58;24.02;;;10.32;;
83688;SDS011;74527;43.224;0.108;2024-01-30T06:27:24;25.13;;;11.30;;
83688;SDS011;74527;43.224;0.108;2024-01-30T06:29:50;26.73;;;13.10;;
83688;SDS011;74527;43.224;0.108;2024-01-30T06:32:16;19.58;;;9.88;;
83688;SDS011;74527;43.224;0.108;2024-01-30T06:34:42;18.85;;;10.05;;
83688;SDS011;74527;43.224;0.108;2024-01-30T06:37:09;38.85;;;17.48;;
83688;SDS011;74527;43.224;0.108;2024-01-30T06:39:35;194.38;;;105.72;;
83688;SDS011;74527;43.224;0.108;2024-01-30T06:42:01;62.17;;;32.13;;
83688;SDS011;74527;43.224;0.108;2024-01-30T06:44:27;41.55;;;21.60;;
83688;SDS011;74527;43.224;0.108;2024-01-30T06:46:53;37.88;;;21.63;;
83688;SDS011;74527;43.224;0.108;2024-01-30T06:49:19;37.40;;;17.30;;
83688;SDS011;74527;43.224;0.108;2024-01-30T06:51:47;37.03;;;17.55;;
83688;SDS011;74527;43.224;0.108;2024-01-30T06:54:13;32.80;;;17.55;;
83688;SDS011;74527;43.224;0.108;2024-01-30T06:56:39;26.10;;;14.45;;
83688;SDS011;74527;43.224;0.108;2024-01-30T06:59:05;27.77;;;14.07;;
83688;SDS011;74527;43.224;0.108;2024-01-30T07:01:31;29.33;;;13.68;;
83688;SDS011;74527;43.224;0.108;2024-01-30T07:03:57;26.55;;;12.88;;
83688;SDS011;74527;43.224;0.108;2024-01-30T07:06:24;23.77;;;11.57;;
83688;SDS011;74527;43.224;0.108;2024-01-30T07:08:50;23.35;;;11.90;;
83688;SDS011;74527;43.224;0.108;2024-01-30T07:11:19;21.02;;;11.10;;
83688;SDS011;74527;43.224;0.108;2024-01-30T07:13:47;29.40;;;13.18;;
83688;SDS011;74527;43.224;0.108;2024-01-30T07:16:14;27.27;;;12.40;;
83688;SDS011;74527;43.224;0.108;2024-01-30T07:18:40;19.20;;;10.07;;
83688;SDS011;74527;43.224;0.108;2024-01-30T07:21:06;28.02;;;12.15;;
83688;SDS011;74527;43.224;0.108;2024-01-30T07:23:32;18.70;;;11.15;;
83688;SDS011;74527;43.224;0.108;2024-01-30T07:25:59;23.98;;;10.65;;
83688;SDS011;74527;43.224;0.108;2024-01-30T07:28:25;31.80;;;10.95;;
83688;SDS011;74527;43.224;0.108;2024-01-30T07:30:52;23.50;;;12.52;;
83688;SDS011;74527;43.224;0.108;2024-01-30T07:33:18;37.35;;;13.90;;
83688;SDS011;74527;43.224;0.108;2024-01-30T07:35:45;42.58;;;17.00;;
83688;SDS011;74527;43.224;0.108;2024-01-30T07:38:11;39.83;;;16.67;;
83688;SDS011;74527;43.224;0.108;2024-01-30T07:40:37;27.42;;;14.23;;
83688;SDS011;74527;43.224;0.108;2024-01-30T07:43:03;34.40;;;14.07;;
83688;SDS011;74527;43.224;0.108;2024-01-30T07:45:29;25.83;;;11.30;;
83688;SDS011;74527;43.224;0.108;2024-01-30T07:50:25;25.20;;;10.40;;
83688;SDS011;74527;43.224;0.108;2024-01-30T07:52:51;19.75;;;8.65;;
83688;SDS011;74527;43.224;0.108;2024-01-30T07:57:46;18.48;;;7.50;;
83688;SDS011;74527;43.224;0.108;2024-01-30T08:00:13;16.90;;;7.45;;
83688;SDS011;74527;43.224;0.108;2024-01-30T08:02:39;24.60;;;8.68;;
83688;SDS011;74527;43.224;0.108;2024-01-30T08:05:05;18.13;;;7.80;;
83688;SDS011;74527;43.224;0.108;2024-01-30T08:07:31;14.38;;;7.18;;
83688;SDS011;74527;43.224;0.108;2024-01-30T08:09:57;12.57;;;6.72;;
83688;SDS011;74527;43.224;0.108;2024-01-30T08:12:23;11.90;;;8.30;;
83688;SDS011;74527;43.224;0.108;2024-01-30T08:14:49;17.88;;;8.82;;
83688;SDS011;74527;43.224;0.108;2024-01-30T08:17:15;11.27;;;7.35;;
83688;SDS011;74527;43.224;0.108;2024-01-30T08:19:41;13.80;;;8.13;;
83688;SDS011;74527;43.224;0.108;2024-01-30T08:22:07;15.93;;;6.90;;
83688;SDS011;74527;43.224;0.108;2024-01-30T08:24:33;12.13;;;6.85;;
83688;SDS011;74527;43.224;0.108;2024-01-30T08:26:59;13.20;;;5.88;;
83688;SDS011;74527;43.224;0.108;2024-01-30T08:29:27;13.52;;;5.60;;
83688;SDS011;74527;43.224;0.108;2024-01-30T08:31:53;9.45;;;6.22;;
83688;SDS011;74527;43.224;0.108;2024-01-30T08:34:20;15.20;;;7.57;;
83688;SDS011;74527;43.224;0.108;2024-01-30T08:36:46;14.63;;;7.70;;
83688;SDS011;74527;43.224;0.108;2024-01-30T08:39:13;13.05;;;6.63;;
83688;SDS011;74527;43.224;0.108;2024-01-30T08:41:39;12.38;;;6.03;;
83688;SDS011;74527;43.224;0.108;2024-01-30T08:44:05;9.38;;;5.93;;
83688;SDS011;74527;43.224;0.108;2024-01-30T08:46:32;25.45;;;7.20;;
83688;SDS011;74527;43.224;0.108;2024-01-30T08:48:59;12.57;;;6.60;;
83688;SDS011;74527;43.224;0.108;2024-01-30T08:51:25;8.77;;;5.47;;
83688;SDS011;74527;43.224;0.108;2024-01-30T08:53:51;9.95;;;4.88;;
83688;SDS011;74527;43.224;0.108;2024-01-30T08:56:18;17.10;;;6.93;;
83688;SDS011;74527;43.224;0.108;2024-01-30T08:58:44;17.67;;;6.40;;
83688;SDS011;74527;43.224;0.108;2024-01-30T09:01:10;11.35;;;5.38;;
83688;SDS011;74527;43.224;0.108;2024-01-30T09:03:36;8.80;;;5.25;;
83688;SDS011;74527;43.224;0.108;2024-01-30T09:06:11;14.30;;;6.53;;
83688;SDS011;74527;43.224;0.108;2024-01-30T09:08:37;15.68;;;5.65;;
83688;SDS011;74527;43.224;0.108;2024-01-30T09:11:13;11.52;;;5.07;;
83688;SDS011;74527;43.224;0.108;2024-01-30T09:13:39;9.38;;;5.70;;
83688;SDS011;74527;43.224;0.108;2024-01-30T09:16:06;13.43;;;5.00;;
83688;SDS011;74527;43.224;0.108;2024-01-30T09:18:32;21.48;;;5.32;;
83688;SDS011;74527;43.224;0.108;2024-01-30T09:20:58;9.70;;;5.85;;
83688;SDS011;74527;43.224;0.108;2024-01-30T09:23:24;19.55;;;5.43;;
83688;SDS011;74527;43.224;0.108;2024-01-30T09:25:50;9.77;;;5.85;;
83688;SDS011;74527;43.224;0.108;2024-01-30T09:28:19;11.02;;;5.45;;
83688;SDS011;74527;43.224;0.108;2024-01-30T09:30:45;11.38;;;6.10;;
83688;SDS011;74527;43.224;0.108;2024-01-30T09:33:12;16.88;;;6.93;;
83688;SDS011;74527;43.224;0.108;2024-01-30T09:35:38;22.58;;;8.80;;
83688;SDS011;74527;43.224;0.108;2024-01-30T09:38:04;28.45;;;10.35;;
83688;SDS011;74527;43.224;0.108;2024-01-30T09:40:30;22.02;;;9.68;;
83688;SDS011;74527;43.224;0.108;2024-01-30T09:42:56;18.48;;;8.00;;
83688;SDS011;74527;43.224;0.108;2024-01-30T09:45:25;17.48;;;7.68;;
83688;SDS011;74527;43.224;0.108;2024-01-30T09:47:52;13.10;;;7.50;;
83688;SDS011;74527;43.224;0.108;2024-01-30T09:50:18;13.25;;;5.50;;
83688;SDS011;74527;43.224;0.108;2024-01-30T09:52:45;12.73;;;6.28;;
83688;SDS011;74527;43.224;0.108;2024-01-30T09:55:12;13.82;;;6.13;;
83688;SDS011;74527;43.224;0.108;2024-01-30T09:57:38;15.02;;;6.35;;
83688;SDS011;74527;43.224;0.108;2024-01-30T10:00:04;13.25;;;5.50;;
83688;SDS011;74527;43.224;0.108;2024-01-30T10:02:33;7.32;;;4.20;;
83688;SDS011;74527;43.224;0.108;2024-01-30T10:04:59;14.35;;;5.15;;
83688;SDS011;74527;43.224;0.108;2024-01-30T10:07:26;10.73;;;4.93;;
83688;SDS011;74527;43.224;0.108;2024-01-30T10:09:55;11.07;;;5.28;;
83688;SDS011;74527;43.224;0.108;2024-01-30T10:12:21;13.07;;;5.30;;
83688;SDS011;74527;43.224;0.108;2024-01-30T10:14:48;13.77;;;5.72;;
83688;SDS011;74527;43.224;0.108;2024-01-30T10:17:14;10.73;;;5.10;;
83688;SDS011;74527;43.224;0.108;2024-01-30T10:19:40;11.43;;;5.28;;
83688;SDS011;74527;43.224;0.108;2024-01-30T10:22:07;11.35;;;5.57;;
83688;SDS011;74527;43.224;0.108;2024-01-30T10:24:33;12.35;;;5.82;;
83688;SDS011;74527;43.224;0.108;2024-01-30T10:26:59;15.32;;;5.93;;
83688;SDS011;74527;43.224;0.108;2024-01-30T10:29:26;11.45;;;5.03;;
83688;SDS011;74527;43.224;0.108;2024-01-30T10:31:59;14.27;;;5.28;;
83688;SDS011;74527;43.224;0.108;2024-01-30T10:34:25;13.05;;;4.85;;
83688;SDS011;74527;43.224;0.108;2024-01-30T10:36:53;13.40;;;4.60;;
83688;SDS011;74527;43.224;0.108;2024-01-30T10:39:20;14.88;;;5.38;;
83688;SDS011;74527;43.224;0.108;2024-01-30T10:41:47;15.10;;;4.95;;
83688;SDS011;74527;43.224;0.108;2024-01-30T10:44:13;12.48;;;5.15;;
83688;SDS011;74527;43.224;0.108;2024-01-30T10:46:43;9.75;;;4.82;;
83688;SDS011;74527;43.224;0.108;2024-01-30T10:49:11;12.18;;;5.20;;
83688;SDS011;74527;43.224;0.108;2024-01-30T10:51:38;16.17;;;5.65;;
83688;SDS011;74527;43.224;0.108;2024-01-30T10:54:05;15.50;;;5.97;;
83688;SDS011;74527;43.224;0.108;2024-01-30T10:56:32;22.98;;;6.38;;
83688;SDS011;74527;43.224;0.108;2024-01-30T10:58:59;16.92;;;7.20;;
83688;SDS011;74527;43.224;0.108;2024-01-30T11:01:25;18.75;;;7.82;;
83688;SDS011;74527;43.224;0.108;2024-01-30T11:03:53;27.85;;;10.52;;
83688;SDS011;74527;43.224;0.108;2024-01-30T11:06:27;35.28;;;13.32;;
83688;SDS011;74527;43.224;0.108;2024-01-30T11:09:00;15.55;;;7.75;;
83688;SDS011;74527;43.224;0.108;2024-01-30T11:11:27;17.42;;;7.00;;
83688;SDS011;74527;43.224;0.108;2024-01-30T11:13:53;11.77;;;4.57;;
83688;SDS011;74527;43.224;0.108;2024-01-30T11:16:19;13.82;;;4.45;;
83688;SDS011;74527;43.224;0.108;2024-01-30T11:18:49;10.85;;;4.22;;
83688;SDS011;74527;43.224;0.108;2024-01-30T11:21:18;14.20;;;4.18;;
83688;SDS011;74527;43.224;0.108;2024-01-30T11:23:44;14.20;;;4.68;;
83688;SDS011;74527;43.224;0.108;2024-01-30T11:26:10;16.00;;;5.22;;
83688;SDS011;74527;43.224;0.108;2024-01-30T11:28:37;10.15;;;4.40;;
83688;SDS011;74527;43.224;0.108;2024-01-30T11:31:06;13.68;;;3.85;;
83688;SDS011;74527;43.224;0.108;2024-01-30T11:33:33;12.32;;;3.95;;
83688;SDS011;74527;43.224;0.108;2024-01-30T11:35:59;16.33;;;5.07;;
83688;SDS011;74527;43.224;0.108;2024-01-30T11:38:26;10.35;;;4.50;;
83688;SDS011;74527;43.224;0.108;2024-01-30T11:40:53;11.05;;;4.07;;
83688;SDS011;74527;43.224;0.108;2024-01-30T11:43:21;14.20;;;4.65;;
83688;SDS011;74527;43.224;0.108;2024-01-30T11:45:47;17.92;;;4.63;;
83688;SDS011;74527;43.224;0.108;2024-01-30T11:48:13;22.33;;;5.47;;
83688;SDS011;74527;43.224;0.108;2024-01-30T11:50:39;12.93;;;5.25;;
83688;SDS011;74527;43.224;0.108;2024-01-30T11:53:06;14.20;;;4.93;;
83688;SDS011;74527;43.224;0.108;2024-01-30T11:55:33;11.98;;;4.10;;
83688;SDS011;74527;43.224;0.108;2024-01-30T12:00:26;13.57;;;4.85;;
83688;SDS011;74527;43.224;0.108;2024-01-30T12:02:53;15.20;;;5.82;;
83688;SDS011;74527;43.224;0.108;2024-01-30T12:05:25;16.58;;;4.80;;
83688;SDS011;74527;43.224;0.108;2024-01-30T12:07:52;11.15;;;4.53;;
83688;SDS011;74527;43.224;0.108;2024-01-30T12:10:18;15.18;;;4.35;;
83688;SDS011;74527;43.224;0.108;2024-01-30T12:12:47;11.18;;;4.18;;
83688;SDS011;74527;43.224;0.108;2024-01-30T12:15:13;16.02;;;4.35;;
83688;SDS011;74527;43.224;0.108;2024-01-30T12:17:40;18.88;;;4.88;;
83688;SDS011;74527;43.224;0.108;2024-01-30T12:22:35;10.40;;;4.63;;
83688;SDS011;74527;43.224;0.108;2024-01-30T12:25:02;13.05;;;4.10;;
83688;SDS011;74527;43.224;0.108;2024-01-30T12:27:29;13.95;;;4.88;;
83688;SDS011;74527;43.224;0.108;2024-01-30T12:29:56;11.85;;;4.20;;
83688;SDS011;74527;43.224;0.108;2024-01-30T12:32:22;16.55;;;4.90;;
83688;SDS011;74527;43.224;0.108;2024-01-30T12:34:48;10.68;;;4.50;;
83688;SDS011;74527;43.224;0.108;2024-01-30T12:37:15;13.15;;;3.80;;
83688;SDS011;74527;43.224;0.108;2024-01-30T12:39:45;12.25;;;4.22;;
83688;SDS011;74527;43.224;0.108;2024-01-30T12:42:11;11.38;;;3.78;;
83688;SDS011;74527;43.224;0.108;2024-01-30T12:44:37;15.68;;;3.80;;
83688;SDS011;74527;43.224;0.108;2024-01-30T12:47:03;10.35;;;4.50;;
83688;SDS011;74527;43.224;0.108;2024-01-30T12:49:29;12.75;;;3.55;;
83688;SDS011;74527;43.224;0.108;2024-01-30T12:51:56;15.02;;;4.20;;
83688;SDS011;74527;43.224;0.108;2024-01-30T12:54:22;18.08;;;4.03;;
83688;SDS011;74527;43.224;0.108;2024-01-30T12:56:48;15.93;;;3.50;;
83688;SDS011;74527;43.224;0.108;2024-01-30T12:59:14;14.82;;;4.25;;
83688;SDS011;74527;43.224;0.108;2024-01-30T13:01:41;12.65;;;3.97;;
83688;SDS011;74527;43.224;0.108;2024-01-30T13:04:07;11.38;;;3.75;;
83688;SDS011;74527;43.224;0.108;2024-01-30T13:06:33;10.35;;;3.97;;
83688;SDS011;74527;43.224;0.108;2024-01-30T13:08:59;9.57;;;4.55;;
83688;SDS011;74527;43.224;0.108;2024-01-30T13:11:25;10.82;;;4.68;;
83688;SDS011;74527;43.224;0.108;2024-01-30T13:13:51;16.45;;;5.20;;
83688;SDS011;74527;43.224;0.108;2024-01-30T13:16:17;9.65;;;4.90;;
83688;SDS011;74527;43.224;0.108;2024-01-30T13:18:43;12.98;;;4.30;;
83688;SDS011;74527;43.224;0.108;2024-01-30T13:21:10;12.13;;;4.78;;
83688;SDS011;74527;43.224;0.108;2024-01-30T13:23:36;10.93;;;5.18;;
83688;SDS011;74527;43.224;0.108;2024-01-30T13:26:02;13.88;;;4.97;;
83688;SDS011;74527;43.224;0.108;2024-01-30T13:28:28;13.52;;;5.38;;
83688;SDS011;74527;43.224;0.108;2024-01-30T13:30:54;14.80;;;4.47;;
83688;SDS011;74527;43.224;0.108;2024-01-30T13:33:20;10.82;;;4.32;;
83688;SDS011;74527;43.224;0.108;2024-01-30T13:35:46;7.93;;;4.68;;
83688;SDS011;74527;43.224;0.108;2024-01-30T13:38:13;11.18;;;4.00;;
83688;SDS011;74527;43.224;0.108;2024-01-30T13:40:40;12.65;;;3.75;;
83688;SDS011;74527;43.224;0.108;2024-01-30T13:43:06;12.90;;;4.68;;
83688;SDS011;74527;43.224;0.108;2024-01-30T13:45:32;14.20;;;4.60;;
83688;SDS011;74527;43.224;0.108;2024-01-30T13:47:58;11.10;;;4.28;;
83688;SDS011;74527;43.224;0.108;2024-01-30T13:50:24;8.48;;;3.63;;
83688;SDS011;74527;43.224;0.108;2024-01-30T13:52:51;13.07;;;4.15;;
83688;SDS011;74527;43.224;0.108;2024-01-30T13:55:17;10.93;;;3.53;;
83688;SDS011;74527;43.224;0.108;2024-01-30T13:57:43;11.95;;;3.90;;
83688;SDS011;74527;43.224;0.108;2024-01-30T14:00:09;9.23;;;3.42;;
83688;SDS011;74527;43.224;0.108;2024-01-30T14:02:36;8.60;;;3.80;;
83688;SDS011;74527;43.224;0.108;2024-01-30T14:05:02;9.35;;;4.22;;
83688;SDS011;74527;43.224;0.108;2024-01-30T14:07:29;12.88;;;3.88;;
83688;SDS011;74527;43.224;0.108;2024-01-30T14:09:55;10.13;;;3.75;;
83688;SDS011;74527;43.224;0.108;2024-01-30T14:12:21;14.95;;;4.97;;
83688;SDS011;74527;43.224;0.108;2024-01-30T14:14:48;9.55;;;4.53;;
83688;SDS011;74527;43.224;0.108;2024-01-30T14:17:14;14.77;;;3.80;;
83688;SDS011;74527;43.224;0.108;2024-01-30T14:19:40;12.70;;;4.75;;
83688;SDS011;74527;43.224;0.108;2024-01-30T14:22:06;17.42;;;4.78;;
83688;SDS011;74527;43.224;0.108;2024-01-30T14:24:33;11.88;;;4.32;;
83688;SDS011;74527;43.224;0.108;2024-01-30T14:26:59;10.10;;;3.95;;
83688;SDS011;74527;43.224;0.108;2024-01-30T14:29:25;11.23;;;4.10;;
83688;SDS011;74527;43.224;0.108;2024-01-30T14:31:51;11.77;;;4.10;;
83688;SDS011;74527;43.224;0.108;2024-01-30T14:34:17;8.73;;;4.35;;